Flight Track Log - Related Links

Times and Time Zones

All times are in EDT time to prevent confusion due to time zone crossing. See the AAL963 flight status page for this flight to view local times or setup timezone preferences in your user account.


Time Position Orientation Groundspeed Altitude Reporting Facility
EDT Latitude Longitude Course Direction KTS MPH feet Rate Location/Type
Mon 09:18:21 PM 32.8580 -97.0280 166° South 185 213 2,000  Level FlightAware ADS-B
Mon 09:18:45 PM 32.8360 -97.0200 163° South 206 237 2,400 778 Climbing FlightAware ADS-B
Mon 09:19:15 PM 32.8110 -97.0110 163° South 232 267 2,700 1,300 Climbing FlightAware ADS-B
Mon 09:19:45 PM 32.7750 -97.0000 166° South 246 283 3,700 1,964 Climbing FlightAware ADS-B
Mon 09:20:10 PM 32.7460 -96.9910 165° South 253 291 4,500 1,855 Climbing FlightAware ADS-B
Mon 09:20:40 PM 32.7160 -96.9700 150° Southeast 264 304 5,400 1,440 Climbing FlightAware ADS-B
Mon 09:21:00 PM 32.7060 -96.9420 113° Southeast 285 328 5,700 1,800 Climbing FlightAware ADS-B
Mon 09:21:20 PM 32.7060 -96.9120 90° East 280 322 6,600 2,353 Climbing FlightAware ADS-B
Mon 09:21:51 PM 32.7140 -96.8650 79° East 284 327 7,700 2,000 Climbing FlightAware ADS-B
Mon 09:22:20 PM 32.7190 -96.8190 83° East 290 334 8,600 1,579 Climbing FlightAware ADS-B
Mon 09:22:48 PM 32.7230 -96.7730 84° East 304 350 9,200 1,500 Climbing FlightAware ADS-B
Mon 09:23:12 PM 32.7260 -96.7330 85° East 306 352 9,900 1,371 Climbing FlightAware ADS-B
Mon 09:23:58 PM 32.7330 -96.6520 84° East 332 382 10,800 1,186 Climbing FlightAware ADS-B
Mon 09:24:38 PM 32.7400 -96.5780 84° East 354 407 11,600 900 Climbing FlightAware ADS-B
Mon 09:25:18 PM 32.7470 -96.4980 84° East 388 447 12,000 929 Climbing FlightAware ADS-B
Mon 09:26:02 PM 32.7550 -96.3990 84° East 410 472 12,900 1,412 Climbing FlightAware ADS-B
Mon 09:27:00 PM 32.7520 -96.2690 92° East 425 489 14,400 1,761 Climbing FlightAware ADS-B
Mon 09:27:34 PM 32.7400 -96.1910 100° East 427 491 15,600 1,857 Climbing FlightAware ADS-B
Mon 09:28:24 PM 32.7210 -96.0740 101° East 438 504 17,000 1,667 Climbing FlightAware ADS-B
Mon 09:29:04 PM 32.7050 -95.9780 101° East 446 513 18,100 1,556 Climbing FlightAware ADS-B
Mon 09:29:45 PM 32.6910 -95.8890 101° East 452 520 19,100 840 Climbing FlightAware ADS-B
Mon 09:30:44 PM 32.6710 -95.7590 100° East 457 526 19,500 1,389 Climbing FlightAware ADS-B
Mon 09:31:20 PM 32.6590 -95.6410 97° East 476 548 21,300 1,271 Climbing FlightAware ADS-B
Mon 09:32:09 PM 32.6590 -95.5320 90° East 476 548 21,300  Level FlightAware ADS-B
Mon 09:32:45 PM 32.6590 -95.4520 90° East 476 548 21,300  Level FlightAware ADS-B
Mon 09:33:33 PM 32.6590 -95.3450 90° East 476 548 21,300 2,414 Level FlightAware ADS-B
Mon 09:34:12 PM 32.6880 -95.1764 78° East 506 582 24,800 2,935 Climbing FlightAware ADS-B
Mon 09:35:05 PM 32.6791 -95.0294 94° East 506 582 25,800 1,135 Climbing FlightAware ADS-B
Mon 09:35:26 PM 32.6752 -94.9707 94° East 512 589 26,200 978 Climbing FlightAware ADS-B
Mon 09:36:37 PM 32.6487 -94.7695 99° East 518 596 27,300 889 Climbing FlightAware ADS-B
Mon 09:36:47 PM 32.6433 -94.7427 103° East 523 602 27,400 720 Climbing FlightAware ADS-B
Mon 09:37:27 PM 32.6211 -94.6290 103° East 532 612 27,900 857 Climbing FlightAware ADS-B
Mon 09:38:04 PM 32.6008 -94.5241 103° East 532 612 28,500 906 Climbing FlightAware ADS-B
Mon 09:38:20 PM 32.5876 -94.4791 109° East 534 615 28,700 973 Climbing FlightAware ADS-B
Mon 09:38:41 PM 32.5660 -94.4262 116° Southeast 531 611 29,100 1,231 Climbing FlightAware ADS-B
Mon 09:38:59 PM 32.5417 -94.3800 122° Southeast 528 608 29,500 1,019 Climbing FlightAware ADS-B
Mon 09:39:34 PM 32.4940 -94.2993 125° Southeast 529 609 30,000 1,200 Climbing FlightAware ADS-B
Mon 09:40:09 PM 32.4442 -94.2147 125° Southeast 525 604 30,900 1,268 Climbing FlightAware ADS-B
Mon 09:40:45 PM 32.3956 -94.1321 125° Southeast 519 597 31,500 971 Climbing FlightAware ADS-B
Mon 09:41:17 PM 32.3520 -94.0578 125° Southeast 517 595 32,000 968 Climbing FlightAware ADS-B
Mon 09:41:47 PM 32.3109 -93.9878 125° Southeast 517 595 32,500 689 Climbing FlightAware ADS-B
Mon 09:42:18 PM 32.2691 -93.9169 125° Southeast 521 600 32,700 590 Climbing FlightAware ADS-B
Mon 09:42:48 PM 32.2273 -93.8460 125° Southeast 520 598 33,100 787 Climbing FlightAware ADS-B
Mon 09:43:19 PM 32.1853 -93.7751 125° Southeast 517 595 33,500 787 Climbing FlightAware ADS-B
Mon 09:43:49 PM 32.1438 -93.7050 125° Southeast 516 594 33,900 689 Climbing FlightAware ADS-B
Mon 09:44:20 PM 32.1016 -93.6343 125° Southeast 514 592 34,200 198 Climbing FlightAware ADS-B
Mon 09:49:22 PM 31.6887 -92.9477 125° Southeast 511 588 35,000 142 Climbing FlightAware ADS-B
Mon 09:49:58 PM 31.6399 -92.8670 125° Southeast 513 590 35,000  Level FlightAware ADS-B
Mon 09:50:31 PM 31.5941 -92.7909 125° Southeast 513 590 35,000  Level FlightAware ADS-B
Mon 09:51:17 PM 31.5319 -92.6879 125° Southeast 513 590 35,000  Level FlightAware ADS-B
Mon 09:54:09 PM 31.2945 -92.2975 125° Southeast 516 594 35,000  Level FlightAware ADS-B
Mon 09:55:04 PM 31.2191 -92.1744 126° Southeast 516 594 35,000  Level FlightAware ADS-B
Mon 09:56:05 PM 31.1342 -92.0362 126° Southeast 515 593 35,000  Level FlightAware ADS-B
Mon 09:56:25 PM 31.1219 -92.0150 126° Southeast 513 590 35,000  Level Houston Center
Mon 09:57:26 PM 31.0383 -91.8800 126° Southeast 512 589 35,000  Level Houston Center
Mon 09:58:27 PM 30.9553 -91.7447 126° Southeast 513 590 35,000  Level Houston Center
Mon 09:59:28 PM 30.8547 -91.5822 126° Southeast 516 594 35,000  Level Houston Center
Mon 10:00:29 PM 30.7717 -91.4469 126° Southeast 515 593 35,000  Level Houston Center
Mon 10:05:38 PM 30.3330 -90.7550 126° Southeast 513 590 35,000  Level FlightAware ADS-B
Mon 10:06:23 PM 30.2690 -90.6550 127° Southeast 513 590 35,000  Level FlightAware ADS-B
Mon 10:07:02 PM 30.2190 -90.5760 126° Southeast 513 590 35,000  Level FlightAware ADS-B
Mon 10:07:45 PM 30.1550 -90.4760 126° Southeast 514 592 35,000  Level FlightAware ADS-B
Mon 10:08:25 PM 30.0970 -90.3860 127° Southeast 512 589 35,000  Level FlightAware ADS-B
Mon 10:09:10 PM 30.0350 -90.2890 126° Southeast 501 577 35,000  Level FlightAware ADS-B
Mon 10:09:50 PM 29.9800 -90.2030 126° Southeast 500 575 35,000  Level FlightAware ADS-B
Mon 10:10:38 PM 29.9120 -90.0980 127° Southeast 503 579 35,000  Level FlightAware ADS-B
Mon 10:11:32 PM 29.8370 -89.9820 127° Southeast 505 581 35,000  Level FlightAware ADS-B
Mon 10:12:15 PM 29.7740 -89.8970 130° Southeast 505 581 35,000  Level FlightAware ADS-B
Mon 10:12:56 PM 29.7090 -89.8110 131° Southeast 505 581 35,000  Level FlightAware ADS-B
Mon 10:13:34 PM 29.6600 -89.7270 124° Southeast 512 589 35,000  Level FlightAware ADS-B
Mon 10:14:20 PM 29.6220 -89.6110 111° Southeast 512 589 35,000  Level FlightAware ADS-B
Mon 10:15:00 PM 29.5920 -89.5060 108° East 509 586 35,000  Level FlightAware ADS-B
Mon 10:15:44 PM 29.5610 -89.3940 108° East 505 581 35,000  Level FlightAware ADS-B
Mon 10:16:26 PM 29.5310 -89.2860 108° East 503 579 35,000  Level FlightAware ADS-B
Mon 10:17:06 PM 29.5030 -89.1850 108° East 502 578 35,000  Level FlightAware ADS-B
Mon 10:17:44 PM 29.4760 -89.0900 108° East 500 575 35,000  Level FlightAware ADS-B
Mon 10:18:28 PM 29.4450 -88.9800 108° East 497 572 35,000  Level FlightAware ADS-B
Mon 10:19:28 PM 29.4070 -88.8420 108° East 496 571 35,000  Level FlightAware ADS-B
Mon 10:20:04 PM 29.3780 -88.7440 109° East 494 568 35,000  Level FlightAware ADS-B
Mon 10:20:52 PM 29.3420 -88.6190 108° East 493 567 35,000  Level FlightAware ADS-B
Mon 10:21:28 PM 29.3170 -88.5330 108° East 493 567 35,000  Level FlightAware ADS-B
Mon 10:22:18 PM 29.2870 -88.4270 108° East 493 567 35,000  Level FlightAware ADS-B
Mon 10:22:54 PM 29.2650 -88.3510 108° East 493 567 35,000  Level FlightAware ADS-B
Mon 10:23:42 PM 29.2370 -88.2500 108° East 493 567 35,000  Level FlightAware ADS-B
Mon 10:24:19 PM 29.2140 -88.1710 108° East 493 567 35,000  Level FlightAware ADS-B
Mon 10:25:05 PM 29.1870 -88.0740 108° East 493 567 35,000  Level FlightAware ADS-B
Mon 10:25:46 PM 29.1620 -87.9880 108° East 493 567 35,000  Level FlightAware ADS-B
Mon 10:26:24 PM 29.1400 -87.9070 107° East 493 567 35,000  Level FlightAware ADS-B
Mon 10:27:13 PM 29.1100 -87.8040 108° East 493 567 35,000  Level FlightAware ADS-B
Mon 10:27:49 PM 29.0890 -87.7280 108° East 493 567 35,000  Level FlightAware ADS-B
Mon 10:28:50 PM 29.0520 -87.5990 108° East 493 567 35,000  Level FlightAware ADS-B
Mon 10:29:24 PM 29.0320 -87.5280 108° East 493 567 35,000  Level FlightAware ADS-B
Mon 10:30:12 PM 29.0030 -87.4260 108° East 493 567 35,000  Level FlightAware ADS-B
Mon 10:30:50 PM 28.9800 -87.3460 108° East 493 567 35,000  Level FlightAware ADS-B
Mon 10:32:01 PM 28.8494 -87.0344 108° East 467 537 35,000 -45 Level Houston Center
Mon 10:33:02 PM 28.7933 -86.9003 115° Southeast 469 540 34,900  Descending Houston Center
Mon 10:33:58 PM 28.7461 -86.7853 115° Southeast 465 535 35,000  Climbing Jacksonville Center
Mon 10:34:58 PM 28.6917 -86.6553 115° Southeast 465 535 34,900 -50 Descending Jacksonville Center
Mon 10:35:58 PM 28.6372 -86.5186 114° Southeast 465 535 34,900 50 Level Jacksonville Center
Mon 10:36:58 PM 28.5803 -86.3842 116° Southeast 467 537 35,000 50 Climbing Jacksonville Center
Mon 10:37:58 PM 28.5114 -86.2281 117° Southeast 479 551 35,000  Level Jacksonville Center
Mon 10:38:58 PM 28.4544 -86.0964 116° Southeast 474 545 35,000  Level Jacksonville Center
Mon 10:39:58 PM 28.3950 -85.9578 116° Southeast 474 545 35,000 -50 Level Jacksonville Center
Mon 10:40:58 PM 28.3356 -85.8214 116° Southeast 479 551 34,900 -38 Descending Jacksonville Center
Mon 10:42:35 PM 28.2481 -85.6144 116° Southeast 480 552 34,900 14 Level Miami Center
Mon 10:47:52 PM 27.9180 -84.8670 116° Southeast 494 568 35,000 16 Climbing FlightAware ADS-B
Mon 10:48:40 PM 27.8670 -84.7540 117° Southeast 494 568 35,000  Level FlightAware ADS-B
Mon 10:49:20 PM 27.8270 -84.6610 116° Southeast 497 572 35,000  Level FlightAware ADS-B
Mon 10:50:00 PM 27.7900 -84.5660 114° Southeast 498 573 35,000  Level FlightAware ADS-B
Mon 10:50:45 PM 27.7490 -84.4600 114° Southeast 498 573 35,000  Level FlightAware ADS-B
Mon 10:51:11 PM 27.7240 -84.3980 114° Southeast 499 574 35,000  Level FlightAware ADS-B
Mon 10:51:53 PM 27.6840 -84.2960 114° Southeast 499 574 35,000  Level FlightAware ADS-B
Mon 10:52:38 PM 27.6420 -84.1920 114° Southeast 498 573 35,000  Level FlightAware ADS-B
Mon 10:53:17 PM 27.6040 -84.0980 115° Southeast 500 575 35,000  Level FlightAware ADS-B
Mon 10:53:59 PM 27.5640 -83.9980 114° Southeast 501 577 35,000  Level FlightAware ADS-B
Mon 10:54:42 PM 27.5230 -83.8970 115° Southeast 501 577 35,000  Level FlightAware ADS-B
Mon 10:55:19 PM 27.4880 -83.8090 114° Southeast 501 577 35,000  Level FlightAware ADS-B
Mon 10:56:05 PM 27.4430 -83.6980 115° Southeast 504 580 35,000  Level FlightAware ADS-B
Mon 10:56:50 PM 27.4000 -83.5920 115° Southeast 506 582 35,000  Level FlightAware ADS-B
Mon 10:57:29 PM 27.3620 -83.4980 114° Southeast 508 585 35,000  Level FlightAware ADS-B
Mon 10:58:11 PM 27.3200 -83.3950 115° Southeast 510 587 35,000  Level FlightAware ADS-B
Mon 10:58:54 PM 27.2800 -83.2970 115° Southeast 511 588 35,000  Level FlightAware ADS-B
Mon 10:59:52 PM 27.2230 -83.1570 115° Southeast 512 589 35,000  Level FlightAware ADS-B
Mon 11:00:25 PM 27.1880 -83.0730 115° Southeast 514 592 35,000  Level FlightAware ADS-B
Mon 11:01:08 PM 27.1480 -82.9740 114° Southeast 514 592 35,000  Level FlightAware ADS-B
Mon 11:02:07 PM 27.0930 -82.8400 115° Southeast 515 593 35,000  Level FlightAware ADS-B
Mon 11:03:06 PM 27.0290 -82.6870 115° Southeast 514 592 35,000  Level FlightAware ADS-B
Mon 11:04:00 PM 26.9800 -82.5660 114° Southeast 513 590 35,000  Level FlightAware ADS-B
Mon 11:04:42 PM 26.9320 -82.4540 116° Southeast 511 588 35,000  Level FlightAware ADS-B
Mon 11:05:20 PM 26.9010 -82.3760 114° Southeast 511 588 35,000  Level FlightAware ADS-B
Mon 11:06:08 PM 26.8620 -82.2770 114° Southeast 511 588 35,000  Level FlightAware ADS-B
Mon 11:06:45 PM 26.8320 -82.2010 114° Southeast 511 588 35,000  Level FlightAware ADS-B
Mon 11:07:32 PM 26.7610 -82.0450 117° Southeast 512 589 35,000  Level FlightAware ADS-B
Mon 11:08:12 PM 26.7270 -81.9640 115° Southeast 512 589 35,000  Level FlightAware ADS-B
Mon 11:08:54 PM 26.7930 -82.1220 295° West 511 588 35,000  Level FlightAware ADS-B
Mon 11:09:36 PM 26.7610 -82.0470 116° Southeast 512 589 35,000  Level FlightAware ADS-B
Mon 11:10:17 PM 26.7240 -81.9580 115° Southeast 513 590 35,000  Level FlightAware ADS-B
Mon 11:10:58 PM 26.6850 -81.8670 116° Southeast 514 592 35,000  Level FlightAware ADS-B
Mon 11:11:43 PM 26.6300 -81.7370 115° Southeast 514 592 35,000  Level FlightAware ADS-B
Mon 11:12:23 PM 26.5840 -81.6280 115° Southeast 515 593 35,000  Level FlightAware ADS-B
Mon 11:13:08 PM 26.5410 -81.5270 115° Southeast 516 594 35,000  Level FlightAware ADS-B
Mon 11:13:48 PM 26.4970 -81.4250 116° Southeast 516 594 35,000  Level FlightAware ADS-B
Mon 11:14:34 PM 26.4430 -81.2980 115° Southeast 514 592 35,000  Level FlightAware ADS-B
Mon 11:15:13 PM 26.3960 -81.1890 116° Southeast 512 589 35,000  Level FlightAware ADS-B
Mon 11:15:53 PM 26.3580 -81.1010 116° Southeast 511 588 35,000  Level FlightAware ADS-B
Mon 11:16:40 PM 26.3050 -80.9770 115° Southeast 508 585 35,000  Level FlightAware ADS-B
Mon 11:17:16 PM 26.2660 -80.8870 116° Southeast 506 582 35,000  Level FlightAware ADS-B
Mon 11:18:03 PM 26.1180 -80.5480 116° Southeast 501 577 35,000  Level FlightAware ADS-B
Mon 11:18:45 PM 26.0770 -80.4550 116° Southeast 500 575 35,000  Level FlightAware ADS-B
Mon 11:19:28 PM 26.0320 -80.3510 116° Southeast 501 577 35,000  Level FlightAware ADS-B
Mon 11:20:04 PM 25.9950 -80.2670 116° Southeast 501 577 35,000  Level FlightAware ADS-B
Mon 11:20:50 PM 25.9500 -80.1640 116° Southeast 502 578 35,000  Level FlightAware ADS-B
Mon 11:21:33 PM 25.9040 -80.0590 116° Southeast 502 578 35,000  Level FlightAware ADS-B
Mon 11:22:14 PM 25.8600 -79.9670 118° Southeast 505 581 35,000  Level FlightAware ADS-B
Mon 11:22:53 PM 25.8080 -79.8830 125° Southeast 504 580 35,000  Level FlightAware ADS-B
Mon 11:23:36 PM 25.7480 -79.8030 130° Southeast 499 574 35,000  Level FlightAware ADS-B
Mon 11:24:20 PM 25.6780 -79.7070 129° Southeast 503 579 35,000  Level FlightAware ADS-B
Mon 11:25:04 PM 25.6150 -79.6210 129° Southeast 503 579 35,000  Level FlightAware ADS-B
Mon 11:25:52 PM 25.5430 -79.5240 129° Southeast 503 579 35,000  Level FlightAware ADS-B
Mon 11:26:42 PM 25.4690 -79.4240 129° Southeast 503 579 35,000  Level FlightAware ADS-B
Mon 11:27:22 PM 25.4100 -79.3440 129° Southeast 503 579 35,000  Level FlightAware ADS-B
Mon 11:28:05 PM 25.3550 -79.2700 129° Southeast 498 573 35,000  Level FlightAware ADS-B
Mon 11:28:45 PM 25.3070 -79.2020 128° Southeast 498 573 35,000  Level FlightAware ADS-B
Mon 11:29:29 PM 25.2320 -79.1010 129° Southeast 497 572 35,000  Level FlightAware ADS-B
Mon 11:30:05 PM 25.1880 -79.0400 129° Southeast 497 572 35,000  Level FlightAware ADS-B
Mon 11:30:53 PM 25.1310 -78.9580 128° Southeast 497 572 35,000  Level FlightAware ADS-B
Mon 11:31:29 PM 25.0870 -78.8970 129° Southeast 497 572 35,000  Level FlightAware ADS-B
Mon 11:32:15 PM 25.0320 -78.8190 128° Southeast 497 572 35,000  Level FlightAware ADS-B
Mon 11:32:52 PM 24.9870 -78.7560 128° Southeast 497 572 35,000  Level FlightAware ADS-B
Mon 11:33:40 PM 24.9300 -78.6740 127° Southeast 497 572 35,000  Level FlightAware ADS-B
Mon 11:34:26 PM 24.8740 -78.5960 128° Southeast 497 572 35,000  Level FlightAware ADS-B
Mon 11:35:02 PM 24.8310 -78.5350 128° Southeast 497 572 35,000  Level FlightAware ADS-B
Mon 11:35:50 PM 24.7730 -78.4530 128° Southeast 497 572 35,000  Level FlightAware ADS-B
Mon 11:36:26 PM 24.7300 -78.3920 128° Southeast 497 572 35,000  Level FlightAware ADS-B
Mon 11:37:03 PM 24.6850 -78.3300 129° Southeast 497 572 35,000  Level FlightAware ADS-B
Mon 11:37:52 PM 24.6260 -78.2470 128° Southeast 497 572 35,000  Level FlightAware ADS-B
Mon 11:38:28 PM 24.5830 -78.1860 128° Southeast 497 572 35,000  Level FlightAware ADS-B
Mon 11:39:35 PM 24.3275 -77.8989 128° Southeast 506 582 35,000  Level Miami Center
Mon 11:40:37 PM 24.2361 -77.7819 131° Southeast 506 582 35,000  Level Miami Center
Mon 11:41:35 PM 24.1450 -77.6628 130° Southeast 506 582 35,000  Level Miami Center
Mon 11:42:34 PM 24.0556 -77.5417 129° Southeast 506 582 35,000  Level Miami Center
Mon 11:43:36 PM 23.9642 -77.4228 130° Southeast 506 582 35,000  Level Miami Center
Mon 11:44:34 PM 23.8747 -77.3067 130° Southeast 506 582 35,000  Level Miami Center
Mon 11:45:34 PM 23.7831 -77.1814 129° Southeast 506 582 35,000  Level Miami Center
Mon 11:46:36 PM 23.7039 -77.0858 132° Southeast 501 577 35,000  Level Miami Center
Mon 11:47:36 PM 23.6142 -76.9633 129° Southeast 506 582 35,000  Level Miami Center
Mon 11:48:36 PM 23.5200 -76.8475 132° Southeast 506 582 35,000  Level Miami Center
Mon 11:49:34 PM 23.4281 -76.7297 130° Southeast 506 582 35,000  Level Miami Center
Mon 11:50:34 PM 23.3381 -76.6122 130° Southeast 506 582 35,000  Level Miami Center
Mon 11:51:34 PM 23.2439 -76.4903 130° Southeast 506 582 35,000  Level Miami Center
Mon 11:52:36 PM 23.1514 -76.3731 131° Southeast 506 582 35,000  Level Miami Center
Mon 11:53:36 PM 23.0592 -76.2561 131° Southeast 506 582 35,000  Level Miami Center
Mon 11:54:34 PM 22.9689 -76.1392 130° Southeast 506 582 35,000  Level Miami Center
Mon 11:55:34 PM 22.8742 -76.0225 131° Southeast 506 582 35,000  Level Miami Center
Mon 11:56:36 PM 22.7814 -75.9058 131° Southeast 506 582 35,000  Level Miami Center
Mon 11:57:35 PM 22.6908 -75.7894 130° Southeast 506 582 35,000  Level Miami Center
Mon 11:58:34 PM 22.5981 -75.6733 131° Southeast 506 582 35,000  Level Miami Center
Mon 11:59:35 PM 22.5072 -75.5572 130° Southeast 506 582 35,000  Level Miami Center
Tue 12:00:34 AM 22.4144 -75.4411 131° Southeast 506 582 35,000  Level Miami Center
Tue 12:01:35 AM 22.3214 -75.3278 132° Southeast 506 582 35,000  Level Miami Center
Tue 12:02:34 AM 22.2281 -75.2122 131° Southeast 506 582 35,000  Level Miami Center
Tue 12:03:34 AM 22.1350 -75.0967 131° Southeast 506 582 35,000  Level Miami Center
Tue 12:04:34 AM 22.0356 -74.9928 136° Southeast 506 582 35,000  Level Miami Center
Tue 12:05:37 AM 21.9278 -74.8892 138° Southeast 501 577 35,000  Level Miami Center
Tue 12:06:35 AM 21.8178 -74.7900 140° Southeast 506 582 35,000 -50 Level Miami Center
Tue 12:07:37 AM 21.7161 -74.6822 135° Southeast 516 594 34,900  Descending Miami Center
Tue 12:08:34 AM 21.6081 -74.5814 139° Southeast 521 600 35,000  Climbing Miami Center
Tue 12:09:37 AM 21.5000 -74.4761 138° Southeast 516 594 34,900 -50 Descending Miami Center
Tue 12:10:35 AM 21.3919 -74.3753 139° Southeast 516 594 34,900  Level Miami Center
Tue 12:11:37 AM 21.2839 -74.2750 139° Southeast 516 594 34,900 50 Level Miami Center
Tue 12:12:35 AM 21.1692 -74.1658 138° Southeast 516 594 35,000  Climbing Miami Center
Tue 12:13:35 AM 21.0589 -74.0658 140° Southeast 521 600 34,900 -50 Descending Miami Center
Tue 12:14:34 AM 20.9483 -73.9614 139° Southeast 516 594 34,900  Level Miami Center
Tue 12:15:36 AM 20.8400 -73.8617 139° Southeast 516 594 34,900 50 Level Miami Center
Tue 12:16:34 AM 20.7317 -73.7597 139° Southeast 516 594 35,000 51 Climbing Miami Center
Tue 12:17:34 AM 20.6211 -73.6581 139° Southeast 521 600 35,000 -50 Level Miami Center
Tue 12:18:35 AM 20.5125 -73.5586 139° Southeast 516 594 34,900  Descending Miami Center
Tue 12:19:35 AM 20.4019 -73.4575 139° Southeast 516 594 35,000 50 Climbing Miami Center
Tue 12:20:34 AM 20.2933 -73.3539 138° Southeast 516 594 35,000 -50 Level Miami Center
Tue 12:21:34 AM 20.1844 -73.2528 139° Southeast 516 594 34,900  Descending Miami Center
Tue 12:23:00 AM 20.0265 -73.1329 142° Southeast  Level FlightAware Approximate
Tue 12:30:00 AM 19.2823 -72.5125 142° Southeast  Level FlightAware Approximate
Tue 12:31:00 AM 19.1758 -72.4243 142° Southeast  Level FlightAware Approximate
Tue 12:32:00 AM 19.0693 -72.3362 142° Southeast  Level FlightAware Approximate
Tue 12:33:00 AM 18.9627 -72.2483 142° Southeast  Level FlightAware Approximate
Tue 12:34:00 AM 18.8561 -72.1605 142° Southeast  Level FlightAware Approximate
Tue 12:35:00 AM 18.7495 -72.0727 142° Southeast  Level FlightAware Approximate
Tue 12:36:00 AM 18.6428 -71.9851 142° Southeast  Level FlightAware Approximate
Tue 12:37:00 AM 18.5418 -71.8918 137° Southeast  Level FlightAware Approximate
Tue 12:38:00 AM 18.4336 -71.8085 146° Southeast  Level FlightAware Approximate
Tue 12:39:00 AM 18.3223 -71.7292 145° Southeast  Level FlightAware Approximate
Tue 12:40:00 AM 18.2136 -71.6462 144° Southeast  Level FlightAware Approximate
Tue 12:40:01 AM 18.0630 -71.5240 144° Southeast 512 589 35,000  Level FlightAware ADS-B
Tue 12:40:48 AM 17.9710 -71.4510 143° Southeast 509 586 35,000  Level FlightAware ADS-B
Tue 12:41:32 AM 17.9020 -71.3950 142° Southeast 509 586 35,000  Level FlightAware ADS-B
Tue 12:42:09 AM 17.8440 -71.3470 142° Southeast 509 586 35,000  Level FlightAware ADS-B
Tue 12:42:57 AM 17.7680 -71.2850 142° Southeast 509 586 35,000  Level FlightAware ADS-B
Tue 12:43:33 AM 17.7120 -71.2390 142° Southeast 509 586 35,000  Level FlightAware ADS-B
Tue 12:44:21 AM 17.6360 -71.1760 142° Southeast 509 586 35,000  Level FlightAware ADS-B
Tue 12:44:57 AM 17.5790 -71.1300 142° Southeast 509 586 35,000  Level FlightAware ADS-B
Tue 12:45:45 AM 17.5030 -71.0680 142° Southeast 509 586 35,000  Level FlightAware ADS-B
Tue 12:46:22 AM 17.4450 -71.0200 142° Southeast 509 586 35,000  Level FlightAware ADS-B
Tue 12:47:10 AM 17.3690 -70.9580 142° Southeast 509 586 35,000  Level FlightAware ADS-B
Tue 12:47:46 AM 17.3130 -70.9120 142° Southeast 509 586 35,000  Level FlightAware ADS-B
Tue 12:48:34 AM 17.2370 -70.8500 142° Southeast 509 586 35,000  Level FlightAware ADS-B
Tue 12:49:11 AM 17.1780 -70.8020 142° Southeast 509 586 35,000  Level FlightAware ADS-B
Tue 12:49:59 AM 17.1030 -70.7400 142° Southeast 509 586 35,000  Level FlightAware ADS-B
Tue 12:50:35 AM 17.0460 -70.6940 142° Southeast 509 586 35,000  Level FlightAware ADS-B
Tue 12:51:56 AM 16.7300 -70.4790 147° Southeast 498 573 35,000  Level FlightAware ADS-B
Tue 12:52:47 AM 16.6500 -70.4160 143° Southeast 498 573 35,000  Level FlightAware ADS-B
Tue 12:53:24 AM 16.5920 -70.3710 143° Southeast 498 573 35,000  Level FlightAware ADS-B
Tue 12:54:12 AM 16.5170 -70.3120 143° Southeast 498 573 35,000  Level FlightAware ADS-B
Tue 12:54:48 AM 16.4610 -70.2670 142° Southeast 498 573 35,000  Level FlightAware ADS-B
Tue 12:55:25 AM 16.4030 -70.2220 143° Southeast 498 573 35,000  Level FlightAware ADS-B
Tue 12:56:13 AM 16.3280 -70.1630 143° Southeast 498 573 35,000  Level FlightAware ADS-B
Tue 12:56:50 AM 16.2700 -70.1170 143° Southeast 498 573 35,000  Level FlightAware ADS-B
Tue 12:57:38 AM 16.1950 -70.0580 143° Southeast 498 573 35,000  Level FlightAware ADS-B
Tue 12:58:14 AM 16.1390 -70.0140 143° Southeast 498 573 35,000  Level FlightAware ADS-B
Tue 12:59:02 AM 16.0640 -69.9550 143° Southeast 498 573 35,000  Level FlightAware ADS-B
Tue 12:59:38 AM 16.0070 -69.9110 143° Southeast 498 573 35,000  Level FlightAware ADS-B
Tue 01:00:28 AM 15.9290 -69.8500 143° Southeast 498 573 35,000  Level FlightAware ADS-B
Tue 01:01:05 AM 15.8710 -69.8050 143° Southeast 498 573 35,000  Level FlightAware ADS-B
Tue 01:01:53 AM 15.7960 -69.7460 143° Southeast 498 573 35,000 14 Level FlightAware ADS-B
Tue 01:04:00 AM 15.5630 -69.5776 145° Southeast  Level FlightAware Approximate
Tue 01:05:00 AM 15.4528 -69.4982 145° Southeast  Level FlightAware Approximate
Tue 01:06:00 AM 15.3427 -69.4189 145° Southeast  Level FlightAware Approximate
Tue 01:07:00 AM 15.2324 -69.3396 145° Southeast  Level FlightAware Approximate
Tue 01:08:00 AM 15.1222 -69.2605 145° Southeast  Level FlightAware Approximate
Tue 01:09:00 AM 15.0120 -69.1814 145° Southeast  Level FlightAware Approximate
Tue 01:10:00 AM 14.9017 -69.1024 145° Southeast  Level FlightAware Approximate
Tue 01:11:00 AM 14.7914 -69.0235 145° Southeast  Level FlightAware Approximate
Tue 01:12:00 AM 14.6811 -68.9446 145° Southeast  Level FlightAware Approximate
Tue 01:13:00 AM 14.5707 -68.8659 145° Southeast  Level FlightAware Approximate
Tue 01:14:00 AM 14.4603 -68.7872 145° Southeast  Level FlightAware Approximate
Tue 01:15:00 AM 14.3499 -68.7086 145° Southeast  Level FlightAware Approximate
Tue 01:16:00 AM 14.2395 -68.6301 145° Southeast  Level FlightAware Approximate
Tue 01:17:00 AM 14.1290 -68.5516 145° Southeast  Level FlightAware Approximate
Tue 01:18:00 AM 14.0185 -68.4733 145° Southeast  Level FlightAware Approximate
Tue 01:19:00 AM 13.9080 -68.3950 145° Southeast  Level FlightAware Approximate
Tue 01:20:00 AM 13.7974 -68.3167 146° Southeast  Level FlightAware Approximate
Tue 01:21:00 AM 13.6869 -68.2386 146° Southeast  Level FlightAware Approximate
Tue 01:22:00 AM 13.5763 -68.1605 146° Southeast  Level FlightAware Approximate
Tue 01:23:00 AM 13.4657 -68.0825 146° Southeast  Level FlightAware Approximate
Tue 01:24:00 AM 13.3550 -68.0046 146° Southeast  Level FlightAware Approximate
Tue 01:25:00 AM 13.2444 -67.9267 146° Southeast  Level FlightAware Approximate
Tue 01:26:00 AM 13.1337 -67.8490 146° Southeast  Level FlightAware Approximate
Tue 01:27:00 AM 13.0230 -67.7712 146° Southeast  Level FlightAware Approximate
Tue 01:28:00 AM 12.9122 -67.6936 146° Southeast  Level FlightAware Approximate
Tue 01:29:00 AM 12.8012 -67.6150 145° Southeast  Level FlightAware Approximate
Tue 01:30:00 AM 12.6915 -67.5364 145° Southeast  Level FlightAware Approximate
Tue 01:31:00 AM 12.5817 -67.4579 145° Southeast  Level FlightAware Approximate
Tue 01:32:00 AM 12.4719 -67.3794 145° Southeast  Level FlightAware Approximate
Tue 01:33:00 AM 12.3620 -67.3011 145° Southeast  Level FlightAware Approximate
Tue 01:34:00 AM 12.2522 -67.2227 145° Southeast  Level FlightAware Approximate
Tue 01:35:00 AM 12.1423 -67.1445 145° Southeast  Level FlightAware Approximate
Tue 01:36:00 AM 12.0324 -67.0663 145° Southeast  Level FlightAware Approximate
Tue 01:37:00 AM 11.9225 -66.9881 145° Southeast  Level FlightAware Approximate
Tue 01:38:00 AM 11.8126 -66.9101 145° Southeast  Level FlightAware Approximate
Tue 01:39:00 AM 11.7026 -66.8321 145° Southeast  Level FlightAware Approximate
Tue 01:40:00 AM 11.5926 -66.7541 145° Southeast  Level FlightAware Approximate
Tue 01:41:00 AM 11.4826 -66.6762 145° Southeast  Level FlightAware Approximate
Tue 01:42:00 AM 11.3724 -66.5983 145° Southeast  Level FlightAware Approximate
Tue 01:43:00 AM 11.2622 -66.5204 145° Southeast  Level FlightAware Approximate
Tue 01:44:00 AM 11.1531 -66.4412 144° Southeast  Level FlightAware Approximate
Tue 01:45:00 AM 11.0444 -66.3615 144° Southeast  Level FlightAware Approximate
Tue 01:46:00 AM 10.9357 -66.2819 144° Southeast  Level FlightAware Approximate
Tue 01:47:00 AM 10.8270 -66.2023 144° Southeast  Level FlightAware Approximate
Tue 01:48:00 AM 10.7183 -66.1229 144° Southeast  Level FlightAware Approximate
Tue 01:49:00 AM 10.6095 -66.0434 144° Southeast  Level FlightAware Approximate
Tue 01:50:00 AM 10.5004 -65.9650 145° Southeast  Level FlightAware Approximate
Tue 01:51:00 AM 10.3906 -65.8875 145° Southeast  Level FlightAware Approximate
Tue 01:52:00 AM 10.2808 -65.8101 145° Southeast  Level FlightAware Approximate
Tue 01:53:00 AM 10.1709 -65.7327 145° Southeast  Level FlightAware Approximate
Tue 01:54:00 AM 10.0611 -65.6554 145° Southeast  Level FlightAware Approximate
Tue 01:55:00 AM 9.9512 -65.5781 145° Southeast  Level FlightAware Approximate
Tue 01:56:00 AM 9.8413 -65.5009 145° Southeast  Level FlightAware Approximate
Tue 01:57:00 AM 9.7314 -65.4238 145° Southeast  Level FlightAware Approximate
Tue 01:58:00 AM 9.6215 -65.3467 145° Southeast  Level FlightAware Approximate
Tue 01:59:00 AM 9.5115 -65.2696 145° Southeast  Level FlightAware Approximate
Tue 02:00:00 AM 9.4016 -65.1926 145° Southeast  Level FlightAware Approximate
Tue 02:01:00 AM 9.2916 -65.1156 145° Southeast  Level FlightAware Approximate
Tue 02:02:00 AM 9.1816 -65.0387 145° Southeast  Level FlightAware Approximate
Tue 02:03:00 AM 9.0718 -64.9615 145° Southeast  Level FlightAware Approximate
Tue 02:04:00 AM 8.9622 -64.8842 145° Southeast  Level FlightAware Approximate
Tue 02:05:00 AM 8.8525 -64.8069 145° Southeast  Level FlightAware Approximate
Tue 02:06:00 AM 8.7428 -64.7297 145° Southeast  Level FlightAware Approximate
Tue 02:07:00 AM 8.6330 -64.6525 145° Southeast  Level FlightAware Approximate
Tue 02:08:00 AM 8.5233 -64.5753 145° Southeast  Level FlightAware Approximate
Tue 02:09:00 AM 8.4136 -64.4982 145° Southeast  Level FlightAware Approximate
Tue 02:10:00 AM 8.3038 -64.4212 145° Southeast  Level FlightAware Approximate
Tue 02:11:00 AM 8.1940 -64.3441 145° Southeast  Level FlightAware Approximate
Tue 02:12:00 AM 8.0842 -64.2672 145° Southeast  Level FlightAware Approximate
Tue 02:13:00 AM 7.9744 -64.1902 145° Southeast  Level FlightAware Approximate
Tue 02:14:00 AM 7.8646 -64.1134 145° Southeast  Level FlightAware Approximate
Tue 02:15:00 AM 7.7548 -64.0365 145° Southeast  Level FlightAware Approximate
Tue 02:16:00 AM 7.6449 -63.9597 145° Southeast  Level FlightAware Approximate
Tue 02:17:00 AM 7.5349 -63.8832 146° Southeast  Level FlightAware Approximate
Tue 02:18:00 AM 7.4246 -63.8071 146° Southeast  Level FlightAware Approximate
Tue 02:19:00 AM 7.3142 -63.7310 146° Southeast  Level FlightAware Approximate
Tue 02:20:00 AM 7.2039 -63.6550 146° Southeast  Level FlightAware Approximate
Tue 02:21:00 AM 7.0936 -63.5790 146° Southeast  Level FlightAware Approximate
Tue 02:22:00 AM 6.9832 -63.5030 146° Southeast  Level FlightAware Approximate
Tue 02:23:00 AM 6.8729 -63.4271 146° Southeast  Level FlightAware Approximate
Tue 02:24:00 AM 6.7625 -63.3512 146° Southeast  Level FlightAware Approximate
Tue 02:25:00 AM 6.6521 -63.2753 146° Southeast  Level FlightAware Approximate
Tue 02:26:00 AM 6.5417 -63.1995 146° Southeast  Level FlightAware Approximate
Tue 02:27:00 AM 6.4313 -63.1237 146° Southeast  Level FlightAware Approximate
Tue 02:28:00 AM 6.3209 -63.0480 146° Southeast  Level FlightAware Approximate
Tue 02:29:00 AM 6.2105 -62.9723 146° Southeast  Level FlightAware Approximate
Tue 02:30:00 AM 6.1000 -62.8966 146° Southeast  Level FlightAware Approximate
Tue 02:31:00 AM 5.9896 -62.8209 146° Southeast  Level FlightAware Approximate
Tue 02:32:00 AM 5.8791 -62.7453 146° Southeast  Level FlightAware Approximate
Tue 02:33:00 AM 5.7686 -62.6697 146° Southeast  Level FlightAware Approximate
Tue 02:34:00 AM 5.6582 -62.5941 146° Southeast  Level FlightAware Approximate
Tue 02:35:00 AM 5.5477 -62.5186 146° Southeast  Level FlightAware Approximate
Tue 02:36:00 AM 5.4372 -62.4431 146° Southeast  Level FlightAware Approximate
Tue 02:37:00 AM 5.3268 -62.3677 146° Southeast  Level FlightAware Approximate
Tue 02:38:00 AM 5.2165 -62.2924 146° Southeast  Level FlightAware Approximate
Tue 02:39:00 AM 5.1062 -62.2171 146° Southeast  Level FlightAware Approximate
Tue 02:40:00 AM 4.9958 -62.1418 146° Southeast  Level FlightAware Approximate
Tue 02:41:00 AM 4.8855 -62.0666 146° Southeast  Level FlightAware Approximate
Tue 02:42:00 AM 4.7751 -61.9913 146° Southeast  Level FlightAware Approximate
Tue 02:43:00 AM 4.6647 -61.9161 146° Southeast  Level FlightAware Approximate
Tue 02:44:00 AM 4.5544 -61.8410 146° Southeast  Level FlightAware Approximate
Tue 02:45:00 AM 4.4440 -61.7658 146° Southeast  Level FlightAware Approximate
Tue 02:46:00 AM 4.3336 -61.6907 146° Southeast  Level FlightAware Approximate
Tue 02:47:00 AM 4.2232 -61.6156 146° Southeast  Level FlightAware Approximate
Tue 02:48:00 AM 4.1128 -61.5405 146° Southeast  Level FlightAware Approximate
Tue 02:49:00 AM 4.0023 -61.4654 146° Southeast  Level FlightAware Approximate
Tue 02:50:00 AM 3.8919 -61.3904 146° Southeast  Level FlightAware Approximate
Tue 02:51:00 AM 3.7815 -61.3153 146° Southeast  Level FlightAware Approximate
Tue 02:52:00 AM 3.6711 -61.2403 146° Southeast  Level FlightAware Approximate
Tue 02:53:00 AM 3.5606 -61.1653 146° Southeast  Level FlightAware Approximate
Tue 02:54:00 AM 3.4502 -61.0904 146° Southeast  Level FlightAware Approximate
Tue 02:55:00 AM 3.3397 -61.0154 146° Southeast  Level FlightAware Approximate
Tue 02:56:00 AM 3.2292 -60.9405 146° Southeast  Level FlightAware Approximate
Tue 02:57:00 AM 3.1188 -60.8655 146° Southeast  Level FlightAware Approximate
Tue 02:58:00 AM 3.0083 -60.7906 146° Southeast  Level FlightAware Approximate
Tue 02:59:00 AM 2.8976 -60.7156 146° Southeast  Level FlightAware Approximate
Tue 03:00:00 AM 2.7822 -60.6487 153° Southeast  Level FlightAware Approximate
Tue 03:01:00 AM 2.6632 -60.5878 153° Southeast  Level FlightAware Approximate
Tue 03:02:00 AM 2.5442 -60.5269 153° Southeast  Level FlightAware Approximate
Tue 03:03:00 AM 2.4252 -60.4660 153° Southeast  Level FlightAware Approximate
Tue 03:04:00 AM 2.3062 -60.4052 153° Southeast  Level FlightAware Approximate
Tue 03:05:00 AM 2.1872 -60.3443 153° Southeast  Level FlightAware Approximate
Tue 03:06:00 AM 2.0682 -60.2835 153° Southeast  Level FlightAware Approximate
Tue 03:07:00 AM 1.9491 -60.2226 153° Southeast  Level FlightAware Approximate
Tue 03:08:00 AM 1.8301 -60.1618 153° Southeast  Level FlightAware Approximate
Tue 03:09:00 AM 1.7111 -60.1010 153° Southeast  Level FlightAware Approximate
Tue 03:10:00 AM 1.5921 -60.0402 153° Southeast  Level FlightAware Approximate
Tue 03:11:00 AM 1.4730 -59.9794 153° Southeast  Level FlightAware Approximate
Tue 03:12:00 AM 1.3540 -59.9186 153° Southeast  Level FlightAware Approximate
Tue 03:13:00 AM 1.2350 -59.8578 153° Southeast  Level FlightAware Approximate
Tue 03:14:00 AM 1.1159 -59.7971 153° Southeast  Level FlightAware Approximate
Tue 03:15:00 AM 0.9969 -59.7363 153° Southeast  Level FlightAware Approximate
Tue 03:16:00 AM 0.8779 -59.6755 153° Southeast  Level FlightAware Approximate
Tue 03:17:00 AM 0.7588 -59.6147 153° Southeast  Level FlightAware Approximate
Tue 03:18:00 AM 0.6398 -59.5540 153° Southeast  Level FlightAware Approximate
Tue 03:19:00 AM 0.5208 -59.4932 153° Southeast  Level FlightAware Approximate
Tue 03:20:00 AM 0.4017 -59.4325 153° Southeast  Level FlightAware Approximate
Tue 03:21:00 AM 0.2827 -59.3717 153° Southeast  Level FlightAware Approximate
Tue 03:22:00 AM 0.1637 -59.3110 153° Southeast  Level FlightAware Approximate
Tue 03:23:00 AM 0.0446 -59.2502 153° Southeast  Level FlightAware Approximate
Tue 03:24:00 AM -0.0744 -59.1895 153° Southeast  Level FlightAware Approximate
Tue 03:25:00 AM -0.1935 -59.1287 153° Southeast  Level FlightAware Approximate
Tue 03:26:00 AM -0.3125 -59.0680 153° Southeast  Level FlightAware Approximate
Tue 03:27:00 AM -0.4315 -59.0072 153° Southeast  Level FlightAware Approximate
Tue 03:28:00 AM -0.5506 -58.9465 153° Southeast  Level FlightAware Approximate
Tue 03:29:00 AM -0.6696 -58.8857 153° Southeast  Level FlightAware Approximate
Tue 03:30:00 AM -0.7887 -58.8249 153° Southeast  Level FlightAware Approximate
Tue 03:31:00 AM -0.9077 -58.7642 153° Southeast  Level FlightAware Approximate
Tue 03:32:00 AM -1.0267 -58.7034 153° Southeast  Level FlightAware Approximate
Tue 03:33:00 AM -1.1458 -58.6426 153° Southeast  Level FlightAware Approximate
Tue 03:34:00 AM -1.2648 -58.5818 153° Southeast  Level FlightAware Approximate
Tue 03:35:00 AM -1.3838 -58.5211 153° Southeast  Level FlightAware Approximate
Tue 03:36:00 AM -1.5029 -58.4603 153° Southeast  Level FlightAware Approximate
Tue 03:37:00 AM -1.6219 -58.3995 153° Southeast  Level FlightAware Approximate
Tue 03:38:00 AM -1.7409 -58.3387 153° Southeast  Level FlightAware Approximate
Tue 03:39:00 AM -1.8599 -58.2779 153° Southeast  Level FlightAware Approximate
Tue 03:40:00 AM -1.9789 -58.2170 153° Southeast  Level FlightAware Approximate
Tue 03:41:00 AM -2.0980 -58.1562 153° Southeast  Level FlightAware Approximate
Tue 03:42:00 AM -2.2170 -58.0954 153° Southeast  Level FlightAware Approximate
Tue 03:43:00 AM -2.3360 -58.0345 153° Southeast  Level FlightAware Approximate
Tue 03:44:00 AM -2.4550 -57.9737 153° Southeast  Level FlightAware Approximate
Tue 03:45:00 AM -2.5740 -57.9128 153° Southeast  Level FlightAware Approximate
Tue 03:46:00 AM -2.6930 -57.8519 153° Southeast  Level FlightAware Approximate
Tue 03:47:00 AM -2.8120 -57.7910 153° Southeast  Level FlightAware Approximate
Tue 03:48:00 AM -2.9310 -57.7301 153° Southeast  Level FlightAware Approximate
Tue 03:49:00 AM -3.0500 -57.6692 153° Southeast  Level FlightAware Approximate
Tue 03:50:00 AM -3.1690 -57.6083 153° Southeast  Level FlightAware Approximate
Tue 03:51:00 AM -3.2880 -57.5473 153° Southeast  Level FlightAware Approximate
Tue 03:52:00 AM -3.4070 -57.4864 153° Southeast  Level FlightAware Approximate
Tue 03:53:00 AM -3.5260 -57.4254 153° Southeast  Level FlightAware Approximate
Tue 03:54:00 AM -3.6449 -57.3644 153° Southeast  Level FlightAware Approximate
Tue 03:55:00 AM -3.7639 -57.3034 153° Southeast  Level FlightAware Approximate
Tue 03:56:00 AM -3.8829 -57.2424 153° Southeast  Level FlightAware Approximate
Tue 03:57:00 AM -4.0019 -57.1813 153° Southeast  Level FlightAware Approximate
Tue 03:58:00 AM -4.1208 -57.1203 153° Southeast  Level FlightAware Approximate
Tue 03:59:00 AM -4.2398 -57.0592 153° Southeast  Level FlightAware Approximate
Tue 04:00:00 AM -4.3587 -56.9981 153° Southeast  Level FlightAware Approximate
Tue 04:01:00 AM -4.4777 -56.9370 153° Southeast  Level FlightAware Approximate
Tue 04:02:00 AM -4.5966 -56.8758 153° Southeast  Level FlightAware Approximate
Tue 04:03:00 AM -4.7155 -56.8147 153° Southeast  Level FlightAware Approximate
Tue 04:04:00 AM -4.8345 -56.7535 153° Southeast  Level FlightAware Approximate
Tue 04:05:00 AM -4.9534 -56.6923 153° Southeast  Level FlightAware Approximate
Tue 04:06:00 AM -5.0723 -56.6311 153° Southeast  Level FlightAware Approximate
Tue 04:07:00 AM -5.1912 -56.5698 153° Southeast  Level FlightAware Approximate
Tue 04:08:00 AM -5.3101 -56.5086 153° Southeast  Level FlightAware Approximate
Tue 04:09:00 AM -5.4290 -56.4473 153° Southeast  Level FlightAware Approximate
Tue 04:10:00 AM -5.5479 -56.3860 153° Southeast  Level FlightAware Approximate
Tue 04:11:00 AM -5.6668 -56.3246 153° Southeast  Level FlightAware Approximate
Tue 04:12:00 AM -5.7857 -56.2633 153° Southeast  Level FlightAware Approximate
Tue 04:13:00 AM -5.9046 -56.2019 153° Southeast  Level FlightAware Approximate
Tue 04:14:00 AM -6.0235 -56.1405 153° Southeast  Level FlightAware Approximate
Tue 04:15:00 AM -6.1423 -56.0790 153° Southeast  Level FlightAware Approximate
Tue 04:16:00 AM -6.2612 -56.0176 153° Southeast  Level FlightAware Approximate
Tue 04:17:00 AM -6.3800 -55.9561 153° Southeast  Level FlightAware Approximate
Tue 04:18:00 AM -6.4989 -55.8945 153° Southeast  Level FlightAware Approximate
Tue 04:19:00 AM -6.6177 -55.8330 153° Southeast  Level FlightAware Approximate
Tue 04:20:00 AM -6.7365 -55.7714 153° Southeast  Level FlightAware Approximate
Tue 04:21:00 AM -6.8554 -55.7098 153° Southeast  Level FlightAware Approximate
Tue 04:22:00 AM -6.9742 -55.6481 153° Southeast  Level FlightAware Approximate
Tue 04:23:00 AM -7.0930 -55.5864 153° Southeast  Level FlightAware Approximate
Tue 04:24:00 AM -7.2118 -55.5247 153° Southeast  Level FlightAware Approximate
Tue 04:25:00 AM -7.3305 -55.4630 153° Southeast  Level FlightAware Approximate
Tue 04:26:00 AM -7.4493 -55.4012 153° Southeast  Level FlightAware Approximate
Tue 04:27:00 AM -7.5681 -55.3394 153° Southeast  Level FlightAware Approximate
Tue 04:28:00 AM -7.6869 -55.2776 153° Southeast  Level FlightAware Approximate
Tue 04:29:00 AM -7.8056 -55.2157 153° Southeast  Level FlightAware Approximate
Tue 04:30:00 AM -7.9243 -55.1538 153° Southeast  Level FlightAware Approximate
Tue 04:31:00 AM -8.0431 -55.0918 153° Southeast  Level FlightAware Approximate
Tue 04:32:00 AM -8.1618 -55.0299 153° Southeast  Level FlightAware Approximate
Tue 04:33:00 AM -8.2805 -54.9678 153° Southeast  Level FlightAware Approximate
Tue 04:34:00 AM -8.3992 -54.9058 153° Southeast  Level FlightAware Approximate
Tue 04:35:00 AM -8.5179 -54.8437 153° Southeast  Level FlightAware Approximate
Tue 04:36:00 AM -8.6366 -54.7815 153° Southeast  Level FlightAware Approximate
Tue 04:37:00 AM -8.7553 -54.7194 153° Southeast  Level FlightAware Approximate
Tue 04:38:00 AM -8.8737 -54.6573 153° Southeast  Level FlightAware Approximate
Tue 04:39:00 AM -8.9922 -54.5951 153° Southeast  Level FlightAware Approximate
Tue 04:40:00 AM -9.1106 -54.5330 153° Southeast  Level FlightAware Approximate
Tue 04:41:00 AM -9.2290 -54.4707 153° Southeast  Level FlightAware Approximate
Tue 04:42:00 AM -9.3475 -54.4085 153° Southeast  Level FlightAware Approximate
Tue 04:43:00 AM -9.4659 -54.3461 153° Southeast  Level FlightAware Approximate
Tue 04:44:00 AM -9.5843 -54.2838 153° Southeast  Level FlightAware Approximate
Tue 04:45:00 AM -9.7026 -54.2214 153° Southeast  Level FlightAware Approximate
Tue 04:46:00 AM -9.8210 -54.1590 153° Southeast  Level FlightAware Approximate
Tue 04:47:00 AM -9.9394 -54.0965 153° Southeast  Level FlightAware Approximate
Tue 04:48:00 AM -10.0577 -54.0339 153° Southeast  Level FlightAware Approximate
Tue 04:49:00 AM -10.1761 -53.9714 153° Southeast  Level FlightAware Approximate
Tue 04:50:00 AM -10.2944 -53.9087 152° Southeast  Level FlightAware Approximate
Tue 04:51:00 AM -10.4127 -53.8461 152° Southeast  Level FlightAware Approximate
Tue 04:52:00 AM -10.5310 -53.7833 152° Southeast  Level FlightAware Approximate
Tue 04:53:00 AM -10.6493 -53.7206 152° Southeast  Level FlightAware Approximate
Tue 04:54:00 AM -10.7676 -53.6578 152° Southeast  Level FlightAware Approximate
Tue 04:55:00 AM -10.8858 -53.5949 152° Southeast  Level FlightAware Approximate
Tue 04:56:00 AM -11.0041 -53.5320 152° Southeast  Level FlightAware Approximate
Tue 04:57:00 AM -11.1223 -53.4690 152° Southeast  Level FlightAware Approximate
Tue 04:58:00 AM -11.2405 -53.4060 152° Southeast  Level FlightAware Approximate
Tue 04:59:00 AM -11.3587 -53.3429 152° Southeast  Level FlightAware Approximate
Tue 05:00:00 AM -11.4769 -53.2798 152° Southeast  Level FlightAware Approximate
Tue 05:01:00 AM -11.5951 -53.2166 152° Southeast  Level FlightAware Approximate
Tue 05:02:00 AM -11.7133 -53.1534 152° Southeast  Level FlightAware Approximate
Tue 05:03:00 AM -11.8314 -53.0901 152° Southeast  Level FlightAware Approximate
Tue 05:04:00 AM -11.9496 -53.0268 152° Southeast  Level FlightAware Approximate
Tue 05:05:00 AM -12.0677 -52.9634 152° Southeast  Level FlightAware Approximate
Tue 05:06:00 AM -12.1858 -52.9000 152° Southeast  Level FlightAware Approximate
Tue 05:07:00 AM -12.3039 -52.8365 152° Southeast  Level FlightAware Approximate
Tue 05:08:00 AM -12.4220 -52.7729 152° Southeast  Level FlightAware Approximate
Tue 05:09:00 AM -12.5401 -52.7093 152° Southeast  Level FlightAware Approximate
Tue 05:10:00 AM -12.6581 -52.6456 152° Southeast  Level FlightAware Approximate
Tue 05:11:00 AM -12.7762 -52.5819 152° Southeast  Level FlightAware Approximate
Tue 05:12:00 AM -12.8942 -52.5181 152° Southeast  Level FlightAware Approximate
Tue 05:13:00 AM -13.0122 -52.4542 152° Southeast  Level FlightAware Approximate
Tue 05:14:00 AM -13.1302 -52.3903 152° Southeast  Level FlightAware Approximate
Tue 05:15:00 AM -13.2482 -52.3264 152° Southeast  Level FlightAware Approximate
Tue 05:16:00 AM -13.3661 -52.2623 152° Southeast  Level FlightAware Approximate
Tue 05:17:00 AM -13.4841 -52.1982 152° Southeast  Level FlightAware Approximate
Tue 05:18:00 AM -13.6020 -52.1340 152° Southeast  Level FlightAware Approximate
Tue 05:19:00 AM -13.7199 -52.0698 152° Southeast  Level FlightAware Approximate
Tue 05:20:00 AM -13.8378 -52.0055 152° Southeast  Level FlightAware Approximate
Tue 05:21:00 AM -13.9557 -51.9412 152° Southeast  Level FlightAware Approximate
Tue 05:22:00 AM -14.0735 -51.8768 152° Southeast  Level FlightAware Approximate
Tue 05:23:00 AM -14.1914 -51.8123 152° Southeast  Level FlightAware Approximate
Tue 05:24:00 AM -14.3092 -51.7477 152° Southeast  Level FlightAware Approximate
Tue 05:25:00 AM -14.4270 -51.6831 152° Southeast  Level FlightAware Approximate
Tue 05:26:00 AM -14.5448 -51.6184 152° Southeast  Level FlightAware Approximate
Tue 05:27:00 AM -14.6626 -51.5536 152° Southeast  Level FlightAware Approximate
Tue 05:28:00 AM -14.7803 -51.4888 152° Southeast  Level FlightAware Approximate
Tue 05:29:00 AM -14.8981 -51.4239 152° Southeast  Level FlightAware Approximate
Tue 05:30:00 AM -15.0158 -51.3589 152° Southeast  Level FlightAware Approximate
Tue 05:31:00 AM -15.1335 -51.2939 152° Southeast  Level FlightAware Approximate
Tue 05:32:00 AM -15.2512 -51.2287 152° Southeast  Level FlightAware Approximate
Tue 05:33:00 AM -15.3688 -51.1636 152° Southeast  Level FlightAware Approximate
Tue 05:34:00 AM -15.4865 -51.0983 152° Southeast  Level FlightAware Approximate
Tue 05:35:00 AM -15.6041 -51.0330 152° Southeast  Level FlightAware Approximate
Tue 05:36:00 AM -15.7217 -50.9675 152° Southeast  Level FlightAware Approximate
Tue 05:37:00 AM -15.8393 -50.9021 152° Southeast  Level FlightAware Approximate
Tue 05:38:00 AM -15.9569 -50.8365 152° Southeast  Level FlightAware Approximate
Tue 05:39:00 AM -16.0744 -50.7709 152° Southeast  Level FlightAware Approximate
Tue 05:40:00 AM -16.1920 -50.7051 152° Southeast  Level FlightAware Approximate
Tue 05:41:00 AM -16.3095 -50.6393 152° Southeast  Level FlightAware Approximate
Tue 05:42:00 AM -16.4270 -50.5734 152° Southeast  Level FlightAware Approximate
Tue 05:43:00 AM -16.5444 -50.5075 152° Southeast  Level FlightAware Approximate
Tue 05:44:00 AM -16.6619 -50.4414 152° Southeast  Level FlightAware Approximate
Tue 05:45:00 AM -16.7793 -50.3753 152° Southeast  Level FlightAware Approximate
Tue 05:46:00 AM -16.8967 -50.3091 152° Southeast  Level FlightAware Approximate
Tue 05:47:00 AM -17.0141 -50.2429 152° Southeast  Level FlightAware Approximate
Tue 05:48:00 AM -17.1315 -50.1765 152° Southeast  Level FlightAware Approximate
Tue 05:49:00 AM -17.2488 -50.1100 152° Southeast  Level FlightAware Approximate
Tue 05:50:00 AM -17.3661 -50.0435 152° Southeast  Level FlightAware Approximate
Tue 05:51:00 AM -17.4834 -49.9769 152° Southeast  Level FlightAware Approximate
Tue 05:51:32 AM -18.2970 -49.8730 152° Southeast 508 585 39,000  Level FlightAware ADS-B
Tue 05:52:00 AM -17.6007 -49.9102 152° Southeast  Level FlightAware Approximate
Tue 05:52:15 AM -18.3890 -49.8240 153° Southeast 508 585 39,000  Level FlightAware ADS-B
Tue 05:52:55 AM -18.4710 -49.7800 153° Southeast 508 585 39,000  Level FlightAware ADS-B
Tue 05:53:39 AM -18.5650 -49.7310 154° Southeast 507 583 39,000  Level FlightAware ADS-B
Tue 05:54:21 AM -18.6530 -49.6840 153° Southeast 506 582 39,000  Level FlightAware ADS-B
Tue 05:55:01 AM -18.7360 -49.6400 153° Southeast 506 582 39,000  Level FlightAware ADS-B
Tue 05:55:40 AM -18.7950 -49.6080 153° Southeast 507 583 39,000  Level FlightAware ADS-B
Tue 05:56:21 AM -18.8980 -49.5530 153° Southeast 509 586 39,000  Level FlightAware ADS-B
Tue 05:57:07 AM -18.9980 -49.4970 152° Southeast 509 586 39,000  Level FlightAware ADS-B
Tue 05:57:46 AM -19.0770 -49.4540 153° Southeast 509 586 39,000  Level FlightAware ADS-B
Tue 05:58:31 AM -19.1750 -49.4000 153° Southeast 509 586 39,000  Level FlightAware ADS-B
Tue 05:59:11 AM -19.2600 -49.3530 152° Southeast 509 586 39,000  Level FlightAware ADS-B
Tue 05:59:56 AM -19.3510 -49.3030 153° Southeast 509 586 39,000  Level FlightAware ADS-B
Tue 06:00:40 AM -19.4440 -49.2520 153° Southeast 508 585 39,000  Level FlightAware ADS-B
Tue 06:01:35 AM -19.5610 -49.1870 152° Southeast 508 585 39,000  Level FlightAware ADS-B
Tue 06:02:15 AM -19.6440 -49.1410 152° Southeast 507 583 39,000  Level FlightAware ADS-B
Tue 06:02:59 AM -19.7350 -49.0900 152° Southeast 506 582 39,000  Level FlightAware ADS-B
Tue 06:03:39 AM -19.8180 -49.0440 152° Southeast 505 581 39,000  Level FlightAware ADS-B
Tue 06:04:21 AM -19.9050 -48.9960 153° Southeast 504 580 39,000  Level FlightAware ADS-B
Tue 06:05:03 AM -19.9930 -48.9470 152° Southeast 504 580 39,000  Level FlightAware ADS-B
Tue 06:05:41 AM -20.0700 -48.9040 152° Southeast 504 580 39,000  Level FlightAware ADS-B
Tue 06:06:25 AM -20.1630 -48.8520 152° Southeast 504 580 39,000  Level FlightAware ADS-B
Tue 06:07:21 AM -20.2780 -48.7880 152° Southeast 504 580 39,000  Level FlightAware ADS-B
Tue 06:07:59 AM -20.3560 -48.7440 152° Southeast 504 580 39,000  Level FlightAware ADS-B
Tue 06:08:43 AM -20.4480 -48.6960 154° Southeast 506 582 39,000  Level FlightAware ADS-B
Tue 06:09:27 AM -20.5430 -48.6460 154° Southeast 508 585 39,000  Level FlightAware ADS-B
Tue 06:10:18 AM -20.6500 -48.5890 154° Southeast 510 587 39,000  Level FlightAware ADS-B
Tue 06:11:00 AM -20.7400 -48.5400 153° Southeast 511 588 39,000  Level FlightAware ADS-B
Tue 06:11:44 AM -20.8280 -48.4930 153° Southeast 512 589 39,000  Level FlightAware ADS-B
Tue 06:12:30 AM -20.9290 -48.4390 153° Southeast 513 590 39,000  Level FlightAware ADS-B
Tue 06:13:10 AM -21.0160 -48.3930 154° Southeast 512 589 39,000  Level FlightAware ADS-B
Tue 06:13:52 AM -21.1020 -48.3400 150° Southeast 522 601 39,000  Level FlightAware ADS-B
Tue 06:14:32 AM -21.1790 -48.2760 142° Southeast 524 603 39,000  Level FlightAware ADS-B
Tue 06:15:18 AM -21.2670 -48.2030 142° Southeast 523 602 39,000  Level FlightAware ADS-B
Tue 06:15:58 AM -21.3440 -48.1410 143° Southeast 524 603 39,000  Level FlightAware ADS-B
Tue 06:16:41 AM -21.4260 -48.0750 143° Southeast 523 602 39,000  Level FlightAware ADS-B
Tue 06:17:18 AM -21.4980 -48.0150 142° Southeast 525 604 39,000  Level FlightAware ADS-B
Tue 06:18:03 AM -21.5840 -47.9420 142° Southeast 525 604 39,000  Level FlightAware ADS-B
Tue 06:18:46 AM -21.6680 -47.8720 142° Southeast 524 603 39,000  Level FlightAware ADS-B
Tue 06:19:26 AM -21.7440 -47.8070 142° Southeast 524 603 39,000  Level FlightAware ADS-B
Tue 06:20:10 AM -21.8280 -47.7370 142° Southeast 522 601 39,000  Level FlightAware ADS-B
Tue 06:20:47 AM -21.8950 -47.6800 142° Southeast 521 600 39,000 -600 Level FlightAware ADS-B
Tue 06:21:30 AM -21.9790 -47.6080 142° Southeast 518 596 38,200 -1,482 Descending FlightAware ADS-B
Tue 06:22:12 AM -22.0560 -47.5430 142° Southeast 506 582 36,900 -2,682 Descending FlightAware ADS-B
Tue 06:22:55 AM -22.1350 -47.4760 142° Southeast 511 588 34,400 -3,286 Descending FlightAware ADS-B
Tue 06:23:36 AM -22.2110 -47.4100 141° Southeast 501 577 32,300 -3,459 Descending FlightAware ADS-B
Tue 06:24:20 AM -22.2890 -47.3440 142° Southeast 504 580 29,500 -3,181 Descending FlightAware ADS-B
Tue 06:24:59 AM -22.3620 -47.2820 142° Southeast 478 550 27,900 -2,444 Descending FlightAware ADS-B
Tue 06:25:41 AM -22.4320 -47.2220 142° Southeast 458 527 26,200 -2,341 Descending FlightAware ADS-B
Tue 06:26:21 AM -22.4990 -47.1650 142° Southeast 436 502 24,700 -1,535 Descending FlightAware ADS-B
Tue 06:27:07 AM -22.5640 -47.1090 141° Southeast 391 450 24,000 -1,135 Descending FlightAware ADS-B
Tue 06:27:35 AM -22.6020 -47.0720 138° Southeast 371 427 23,300 -1,350 Descending FlightAware ADS-B
Tue 06:27:47 AM -22.6110 -47.0520 116° Southeast 372 428 23,100 -360 Descending FlightAware ADS-B
Tue 06:28:25 AM -22.6110 -46.9910 90° East 374 430 23,000 -83 Descending FlightAware ADS-B
Tue 06:28:59 AM -22.5660 -46.9410 46° Northeast 374 430 23,000  Level FlightAware ADS-B
Tue 06:29:23 AM -22.5230 -46.9360 North 371 427 23,000  Level FlightAware ADS-B
Tue 06:29:41 AM -22.4960 -46.9460 341° North 368 423 23,000  Level FlightAware ADS-B
Tue 06:30:16 AM -22.4390 -46.9680 340° North 369 425 23,000  Level FlightAware ADS-B
Tue 06:30:53 AM -22.3800 -46.9970 336° Northwest 360 414 23,000  Level FlightAware ADS-B
Tue 06:31:11 AM -22.3620 -47.0210 309° West 350 403 23,000  Level FlightAware ADS-B
Tue 06:31:23 AM -22.3550 -47.0410 291° West 343 395 23,000  Level FlightAware ADS-B
Tue 06:31:39 AM -22.3520 -47.0660 277° West 334 384 23,000  Level FlightAware ADS-B
Tue 06:32:08 AM -22.3650 -47.1110 253° West 319 367 23,000  Level FlightAware ADS-B
Tue 06:32:36 AM -22.3950 -47.1400 222° Southwest 313 360 23,000  Level FlightAware ADS-B
Tue 06:33:27 AM -22.4660 -47.1410 181° South 320 368 23,000  Level FlightAware ADS-B
Tue 06:34:15 AM -22.5330 -47.1170 162° South 318 366 23,000  Level FlightAware ADS-B
Tue 06:34:54 AM -22.5870 -47.0930 158° South 321 369 23,000  Level FlightAware ADS-B
Tue 06:35:08 AM -22.6030 -47.0780 139° Southeast 328 377 23,000  Level FlightAware ADS-B
Tue 06:35:24 AM -22.6160 -47.0570 124° Southeast 337 388 23,000  Level FlightAware ADS-B
Tue 06:35:47 AM -22.6230 -47.0210 102° East 352 405 23,000  Level FlightAware ADS-B
Tue 06:36:20 AM -22.6010 -46.9650 67° East 370 426 23,000  Level FlightAware ADS-B
Tue 06:36:32 AM -22.5850 -46.9520 37° Northeast 372 428 23,000  Level FlightAware ADS-B
Tue 06:36:46 AM -22.5600 -46.9440 16° North 373 429 23,000  Level FlightAware ADS-B
Tue 06:37:12 AM -22.5370 -46.9440 360° North 371 427 23,000  Level FlightAware ADS-B
Tue 06:37:53 AM -22.4630 -46.9730 340° North 356 410 23,000  Level FlightAware ADS-B
Tue 06:38:38 AM -22.3960 -47.0030 338° Northwest 355 409 23,000  Level FlightAware ADS-B
Tue 06:39:07 AM -22.3660 -47.0330 317° Northwest 340 391 23,000  Level FlightAware ADS-B
Tue 06:40:03 AM -22.3750 -47.1290 264° West 304 350 23,000  Level FlightAware ADS-B
Tue 06:40:16 AM -22.3910 -47.1420 217° Southwest 301 346 23,000  Level FlightAware ADS-B
Tue 06:40:32 AM -22.4120 -47.1500 199° South 299 344 23,000  Level FlightAware ADS-B
Tue 06:41:14 AM -22.4690 -47.1400 171° South 304 350 23,000  Level FlightAware ADS-B
Tue 06:41:54 AM -22.5210 -47.1220 162° South 303 349 23,000  Level FlightAware ADS-B
Tue 06:42:36 AM -22.5780 -47.0980 159° South 304 350 23,000  Level FlightAware ADS-B
Tue 06:42:51 AM -22.5940 -47.0860 145° Southeast 311 358 23,000  Level FlightAware ADS-B
Tue 06:43:19 AM -22.6170 -47.0490 124° Southeast 327 376 23,000  Level FlightAware ADS-B
Tue 06:43:48 AM -22.6160 -47.0020 89° East 345 397 23,000  Level FlightAware ADS-B
Tue 06:43:59 AM -22.6080 -46.9870 60° Northeast 351 404 23,000  Level FlightAware ADS-B
Tue 06:44:16 AM -22.5880 -46.9650 45° Northeast 358 412 23,000  Level FlightAware ADS-B
Tue 06:44:28 AM -22.5710 -46.9570 23° Northeast 359 413 23,000  Level FlightAware ADS-B
Tue 06:44:44 AM -22.5400 -46.9550 North 358 412 23,000  Level FlightAware ADS-B
Tue 06:45:26 AM -22.4770 -46.9800 340° North 353 406 23,000  Level FlightAware ADS-B
Tue 06:46:07 AM -22.4340 -46.9980 339° North 353 406 23,000  Level FlightAware ADS-B
Tue 06:46:32 AM -22.3890 -47.0230 333° Northwest 347 399 23,000  Level FlightAware ADS-B
Tue 06:46:48 AM -22.3730 -47.0460 307° West 336 387 23,000  Level FlightAware ADS-B
Tue 06:47:12 AM -22.3660 -47.0790 283° West 323 372 23,000  Level FlightAware ADS-B
Tue 06:47:32 AM -22.3800 -47.1210 250° West 305 351 23,000  Level FlightAware ADS-B
Tue 06:47:44 AM -22.3920 -47.1340 225° Southwest 301 346 23,000  Level FlightAware ADS-B
Tue 06:48:00 AM -22.4110 -47.1460 210° Southwest 299 344 23,000  Level FlightAware ADS-B
Tue 06:48:40 AM -22.4640 -47.1430 177° South 305 351 23,000  Level FlightAware ADS-B
Tue 06:49:24 AM -22.5240 -47.1210 161° South 304 350 23,000  Level FlightAware ADS-B
Tue 06:50:04 AM -22.5750 -47.0990 158° South 305 351 23,000  Level FlightAware ADS-B
Tue 06:50:34 AM -22.6070 -47.0700 140° Southeast 319 367 23,000  Level FlightAware ADS-B
Tue 06:50:44 AM -22.6150 -47.0530 117° Southeast 327 376 23,000  Level FlightAware ADS-B
Tue 06:51:02 AM -22.6200 -47.0240 101° East 339 390 23,000  Level FlightAware ADS-B
Tue 06:51:14 AM -22.6170 -47.0040 81° East 345 397 23,000  Level FlightAware ADS-B
Tue 06:51:30 AM -22.6040 -46.9790 61° Northeast 352 405 23,000  Level FlightAware ADS-B
Tue 06:51:42 AM -22.5880 -46.9650 39° Northeast 356 410 23,000  Level FlightAware ADS-B
Tue 06:51:59 AM -22.5630 -46.9550 20° North 358 412 23,000  Level FlightAware ADS-B
Tue 06:52:11 AM -22.5430 -46.9540 North 357 411 23,000  Level FlightAware ADS-B
Tue 06:52:50 AM -22.4850 -46.9760 341° North 354 407 23,000  Level FlightAware ADS-B
Tue 06:53:32 AM -22.4280 -47.0010 338° Northwest 352 405 23,000  Level FlightAware ADS-B
Tue 06:54:02 AM -22.3870 -47.0240 333° Northwest 344 396 23,000  Level FlightAware ADS-B
Tue 06:54:14 AM -22.3740 -47.0430 306° West 335 386 23,000  Level FlightAware ADS-B
Tue 06:54:26 AM -22.3680 -47.0600 291° West 329 379 23,000  Level FlightAware ADS-B
Tue 06:54:37 AM -22.3660 -47.0810 276° West 321 369 23,000  Level FlightAware ADS-B
Tue 06:54:58 AM -22.3780 -47.1180 251° West 306 352 23,000  Level FlightAware ADS-B
Tue 06:55:14 AM -22.3930 -47.1360 228° Southwest 302 348 23,000  Level FlightAware ADS-B
Tue 06:55:28 AM -22.4100 -47.1460 209° Southwest 300 345 23,000  Level FlightAware ADS-B
Tue 06:55:40 AM -22.4260 -47.1500 193° South 299 344 23,000  Level FlightAware ADS-B
Tue 06:55:56 AM -22.4480 -47.1480 175° South 302 348 23,000  Level FlightAware ADS-B
Tue 06:56:38 AM -22.5040 -47.1280 162° South 304 350 23,000  Level FlightAware ADS-B
Tue 06:57:16 AM -22.5550 -47.1080 160° South 305 351 23,000  Level FlightAware ADS-B
Tue 06:57:46 AM -22.5930 -47.0880 154° Southeast 312 359 23,000  Level FlightAware ADS-B
Tue 06:58:02 AM -22.6080 -47.0680 129° Southeast 320 368 23,000  Level FlightAware ADS-B
Tue 06:58:58 AM -22.6060 -46.9830 89° East 352 405 23,000  Level FlightAware ADS-B
Tue 06:59:26 AM -22.5680 -46.9560 33° Northeast 357 411 23,000  Level FlightAware ADS-B
Tue 06:59:38 AM -22.5450 -46.9550 North 355 409 23,000  Level FlightAware ADS-B
Tue 06:59:54 AM -22.5200 -46.9620 345° North 351 404 23,000  Level FlightAware ADS-B
Tue 07:00:28 AM -22.4740 -46.9820 338° Northwest 352 405 23,000  Level FlightAware ADS-B
Tue 07:01:15 AM -22.3990 -47.0150 338° Northwest 350 403 23,000  Level FlightAware ADS-B
Tue 07:01:30 AM -22.3810 -47.0330 317° Northwest 333 383 23,000  Level FlightAware ADS-B
Tue 07:01:41 AM -22.3720 -47.0480 303° West 330 380 23,000  Level FlightAware ADS-B
Tue 07:02:00 AM -22.3670 -47.0780 280° West 322 371 23,000  Level FlightAware ADS-B
Tue 07:02:28 AM -22.3790 -47.1200 253° West 306 352 23,000  Level FlightAware ADS-B
Tue 07:02:40 AM -22.3920 -47.1340 225° Southwest 302 348 23,000  Level FlightAware ADS-B
Tue 07:02:56 AM -22.4100 -47.1460 212° Southwest 301 346 23,000  Level FlightAware ADS-B
Tue 07:03:08 AM -22.4250 -47.1490 190° South 301 346 23,000  Level FlightAware ADS-B
Tue 07:03:22 AM -22.4460 -47.1490 180° South 303 349 23,000  Level FlightAware ADS-B
Tue 07:04:06 AM -22.5060 -47.1280 162° South 306 352 23,000  Level FlightAware ADS-B
Tue 07:04:48 AM -22.5610 -47.1050 159° South 307 353 23,000  Level FlightAware ADS-B
Tue 07:05:16 AM -22.5970 -47.0850 153° Southeast 314 361 23,000  Level FlightAware ADS-B
Tue 07:05:45 AM -22.6170 -47.0460 119° Southeast 328 377 23,000  Level FlightAware ADS-B
Tue 07:05:56 AM -22.6200 -47.0290 101° East 335 386 23,000  Level FlightAware ADS-B
Tue 07:06:24 AM -22.6050 -46.9810 71° East 353 406 23,000  Level FlightAware ADS-B
Tue 07:06:40 AM -22.5850 -46.9630 40° Northeast 357 411 23,000  Level FlightAware ADS-B
Tue 07:06:50 AM -22.5690 -46.9570 19° North 358 412 23,000  Level FlightAware ADS-B
Tue 07:07:08 AM -22.5400 -46.9560 North 355 409 23,000  Level FlightAware ADS-B
Tue 07:07:48 AM -22.4780 -46.9800 340° North 352 405 23,000  Level FlightAware ADS-B
Tue 07:08:26 AM -22.4240 -47.0040 338° Northwest 345 397 23,000  Level FlightAware ADS-B
Tue 07:08:56 AM -22.3820 -47.0320 328° Northwest 335 386 23,000  Level FlightAware ADS-B
Tue 07:09:10 AM -22.3710 -47.0540 298° West 331 381 23,000  Level FlightAware ADS-B
Tue 07:09:25 AM -22.3670 -47.0770 281° West 322 371 23,000  Level FlightAware ADS-B
Tue 07:09:54 AM -22.3780 -47.1180 254° West 307 353 23,000  Level FlightAware ADS-B
Tue 07:10:25 AM -22.4130 -47.1470 217° Southwest 301 346 23,000  Level FlightAware ADS-B
Tue 07:11:32 AM -22.4860 -47.1340 171° South 306 352 23,000  Level FlightAware ADS-B
Tue 07:12:16 AM -22.5630 -47.1040 160° South 308 354 23,000  Level FlightAware ADS-B
Tue 07:12:44 AM -22.5980 -47.0830 151° Southeast 315 362 23,000  Level FlightAware ADS-B
Tue 07:13:08 AM -22.6160 -47.0500 121° Southeast 328 377 23,000  Level FlightAware ADS-B
Tue 07:13:54 AM -22.6020 -46.9780 78° East 354 407 23,000  Level FlightAware ADS-B
Tue 07:14:06 AM -22.5870 -46.9650 39° Northeast 356 410 23,000  Level FlightAware ADS-B
Tue 07:14:20 AM -22.5680 -46.9570 21° North 357 411 23,000  Level FlightAware ADS-B
Tue 07:14:34 AM -22.5390 -46.9570 360° North 353 406 23,000  Level FlightAware ADS-B
Tue 07:15:14 AM -22.4790 -46.9810 340° North 351 404 23,000  Level FlightAware ADS-B
Tue 07:15:57 AM -22.4150 -47.0090 338° Northwest 344 396 23,000  Level FlightAware ADS-B
Tue 07:16:26 AM -22.3780 -47.0390 323° Northwest 333 383 23,000  Level FlightAware ADS-B
Tue 07:16:52 AM -22.3670 -47.0780 287° West 323 372 23,000  Level FlightAware ADS-B
Tue 07:17:22 AM -22.3810 -47.1220 251° West 302 348 23,000  Level FlightAware ADS-B
Tue 07:17:36 AM -22.3950 -47.1370 225° Southwest 303 349 23,000  Level FlightAware ADS-B
Tue 07:17:51 AM -22.4140 -47.1470 206° Southwest 301 346 23,000  Level FlightAware ADS-B
Tue 07:18:32 AM -22.4700 -47.1400 173° South 300 345 23,000  Level FlightAware ADS-B
Tue 07:19:17 AM -22.5300 -47.1180 161° South 308 354 23,000  Level FlightAware ADS-B
Tue 07:19:57 AM -22.5840 -47.0950 159° South 310 357 23,000  Level FlightAware ADS-B
Tue 07:20:11 AM -22.5990 -47.0820 141° Southeast 311 358 23,000  Level FlightAware ADS-B
Tue 07:20:51 AM -22.6190 -47.0310 113° Southeast 333 383 23,000  Level FlightAware ADS-B
Tue 07:21:17 AM -22.6040 -46.9820 72° East 353 406 23,000  Level FlightAware ADS-B
Tue 07:21:31 AM -22.5850 -46.9650 40° Northeast 356 410 23,000  Level FlightAware ADS-B
Tue 07:21:49 AM -22.5540 -46.9560 15° North 356 410 23,000  Level FlightAware ADS-B
Tue 07:22:17 AM -22.5120 -46.9680 345° North 351 404 23,000  Level FlightAware ADS-B
Tue 07:22:52 AM -22.4620 -46.9890 339° North 351 404 23,000  Level FlightAware ADS-B
Tue 07:23:33 AM -22.4070 -47.0120 339° North 352 405 23,000  Level FlightAware ADS-B
Tue 07:23:55 AM -22.3750 -47.0450 316° Northwest 336 387 23,000  Level FlightAware ADS-B
Tue 07:24:16 AM -22.3670 -47.0790 284° West 324 373 23,000  Level FlightAware ADS-B
Tue 07:24:36 AM -22.3740 -47.1110 257° West 311 358 23,000  Level FlightAware ADS-B
Tue 07:24:50 AM -22.3850 -47.1280 235° Southwest 306 352 23,000  Level FlightAware ADS-B
Tue 07:25:04 AM -22.4000 -47.1410 219° Southwest 302 348 23,000  Level FlightAware ADS-B
Tue 07:25:20 AM -22.4220 -47.1490 199° South 301 346 23,000  Level FlightAware ADS-B
Tue 07:26:01 AM -22.4760 -47.1380 169° South 308 354 23,000  Level FlightAware ADS-B
Tue 07:26:41 AM -22.5300 -47.1180 161° South 308 354 23,000  Level FlightAware ADS-B
Tue 07:27:27 AM -22.5910 -47.0890 156° South 314 361 23,000  Level FlightAware ADS-B
Tue 07:27:53 AM -22.6140 -47.0570 128° Southeast 325 374 23,000  Level FlightAware ADS-B
Tue 07:28:33 AM -22.6100 -46.9910 86° East 348 400 23,000  Level FlightAware ADS-B
Tue 07:28:49 AM -22.5920 -46.9700 47° Northeast 356 410 23,000  Level FlightAware ADS-B
Tue 07:29:01 AM -22.5760 -46.9600 30° Northeast 356 410 23,000  Level FlightAware ADS-B
Tue 07:29:15 AM -22.5520 -46.9560 North 357 411 23,000  Level FlightAware ADS-B
Tue 07:29:46 AM -22.5040 -46.9710 344° North 352 405 23,000  Level FlightAware ADS-B
Tue 07:30:22 AM -22.4510 -46.9930 339° North 351 404 23,000  Level FlightAware ADS-B
Tue 07:31:06 AM -22.3870 -47.0270 334° Northwest 342 394 23,000  Level FlightAware ADS-B
Tue 07:31:21 AM -22.3730 -47.0490 305° West 335 386 23,000  Level FlightAware ADS-B
Tue 07:31:37 AM -22.3670 -47.0730 285° West 323 372 23,000  Level FlightAware ADS-B
Tue 07:32:06 AM -22.3770 -47.1160 256° West 306 352 23,000  Level FlightAware ADS-B
Tue 07:32:16 AM -22.3860 -47.1290 233° Southwest 306 352 23,000  Level FlightAware ADS-B
Tue 07:32:33 AM -22.4040 -47.1430 216° Southwest 295 339 23,000  Level FlightAware ADS-B
Tue 07:32:42 AM -22.4170 -47.1480 200° South 301 346 23,000  Level FlightAware ADS-B
Tue 07:33:15 AM -22.4630 -47.1430 174° South 308 354 23,000  Level FlightAware ADS-B
Tue 07:33:57 AM -22.5210 -47.1220 162° South 308 354 23,000  Level FlightAware ADS-B
Tue 07:34:39 AM -22.5760 -47.0990 159° South 309 356 23,000  Level FlightAware ADS-B
Tue 07:34:55 AM -22.5960 -47.0850 147° Southeast 315 362 23,000  Level FlightAware ADS-B
Tue 07:36:02 AM -22.6050 -46.9830 95° East 352 405 23,000  Level FlightAware ADS-B
Tue 07:36:19 AM -22.5830 -46.9640 39° Northeast 357 411 23,000  Level FlightAware ADS-B
Tue 07:36:31 AM -22.5640 -46.9570 19° North 357 411 23,000  Level FlightAware ADS-B
Tue 07:36:47 AM -22.5400 -46.9570 360° North 355 409 23,000  Level FlightAware ADS-B
Tue 07:37:27 AM -22.4780 -46.9810 340° North 352 405 23,000  Level FlightAware ADS-B
Tue 07:38:07 AM -22.4190 -47.0070 338° Northwest 345 397 23,000  Level FlightAware ADS-B
Tue 07:38:36 AM -22.3800 -47.0350 326° Northwest 334 384 23,000  Level FlightAware ADS-B
Tue 07:39:07 AM -22.3670 -47.0820 287° West 322 371 23,000  Level FlightAware ADS-B
Tue 07:39:17 AM -22.3690 -47.0990 263° West 315 362 23,000  Level FlightAware ADS-B
Tue 07:39:31 AM -22.3780 -47.1190 244° Southwest 310 357 23,000  Level FlightAware ADS-B
Tue 07:39:46 AM -22.3930 -47.1360 226° Southwest 299 344 23,000  Level FlightAware ADS-B
Tue 07:40:12 AM -22.4260 -47.1500 201° Southwest 294 338 23,000  Level FlightAware ADS-B
Tue 07:40:44 AM -22.4640 -47.1420 169° South 309 356 23,000  Level FlightAware ADS-B
Tue 07:41:24 AM -22.5250 -47.1200 162° South 308 354 23,000  Level FlightAware ADS-B
Tue 07:42:06 AM -22.5810 -47.0970 159° South 310 357 23,000  Level FlightAware ADS-B
Tue 07:42:20 AM -22.5980 -47.0830 143° Southeast 316 364 23,000  Level FlightAware ADS-B
Tue 07:42:36 AM -22.6110 -47.0630 125° Southeast 323 372 23,000  Level FlightAware ADS-B
Tue 07:43:03 AM -22.6190 -47.0220 102° East 338 389 23,000  Level FlightAware ADS-B
Tue 07:43:16 AM -22.6140 -47.0010 76° East 346 398 23,000  Level FlightAware ADS-B
Tue 07:43:32 AM -22.6000 -46.9770 58° Northeast 353 406 23,000  Level FlightAware ADS-B
Tue 07:43:44 AM -22.5850 -46.9640 39° Northeast 356 410 23,000  Level FlightAware ADS-B
Tue 07:43:56 AM -22.5650 -46.9570 18° North 357 411 23,000  Level FlightAware ADS-B
Tue 07:44:13 AM -22.5350 -46.9580 358° North 354 407 23,000  Level FlightAware ADS-B
Tue 07:44:52 AM -22.4760 -46.9820 339° North 351 404 23,000  Level FlightAware ADS-B
Tue 07:45:34 AM -22.4220 -47.0050 339° North 352 405 23,000  Level FlightAware ADS-B
Tue 07:46:04 AM -22.3780 -47.0380 325° Northwest 337 388 23,000  Level FlightAware ADS-B
Tue 07:46:28 AM -22.3670 -47.0720 289° West 327 376 23,000  Level FlightAware ADS-B
Tue 07:46:54 AM -22.3730 -47.1090 260° West 313 360 23,000  Level FlightAware ADS-B
Tue 07:47:10 AM -22.3840 -47.1270 237° Southwest 302 348 23,000  Level FlightAware ADS-B
Tue 07:47:26 AM -22.4020 -47.1410 216° Southwest 293 337 23,000  Level FlightAware ADS-B
Tue 07:48:27 AM -22.4900 -47.1330 175° South 293 337 23,000  Level FlightAware ADS-B
Tue 07:49:08 AM -22.5430 -47.1130 161° South 293 337 23,000  Level FlightAware ADS-B
Tue 07:49:50 AM -22.5950 -47.0850 154° Southeast 301 346 23,000  Level FlightAware ADS-B
Tue 07:50:30 AM -22.6160 -47.0280 112° Southeast 324 373 23,000  Level FlightAware ADS-B
Tue 07:50:46 AM -22.6100 -47.0040 75° East 334 384 23,000  Level FlightAware ADS-B
Tue 07:50:58 AM -22.5990 -46.9860 57° Northeast 340 391 23,000  Level FlightAware ADS-B
Tue 07:51:14 AM -22.5800 -46.9710 36° Northeast 344 396 23,000  Level FlightAware ADS-B
Tue 07:51:26 AM -22.5630 -46.9660 15° North 343 395 23,000  Level FlightAware ADS-B
Tue 07:51:53 AM -22.5200 -46.9750 349° North 337 388 23,000  Level FlightAware ADS-B
Tue 07:52:38 AM -22.4540 -47.0030 339° North 337 388 23,000  Level FlightAware ADS-B
Tue 07:53:18 AM -22.3970 -47.0340 333° Northwest 328 377 23,000  Level FlightAware ADS-B
Tue 07:53:45 AM -22.3800 -47.0710 296° West 313 360 23,000  Level FlightAware ADS-B
Tue 07:54:28 AM -22.3970 -47.1290 252° West 292 336 23,000  Level FlightAware ADS-B
Tue 07:54:57 AM -22.4320 -47.1470 205° Southwest 289 333 23,000  Level FlightAware ADS-B
Tue 07:55:39 AM -22.4870 -47.1340 168° South 293 337 23,000  Level FlightAware ADS-B
Tue 07:56:20 AM -22.5400 -47.1140 161° South 295 339 23,000 -220 Level FlightAware ADS-B
Tue 07:57:01 AM -22.5920 -47.0930 160° South 293 337 22,700 -897 Descending FlightAware ADS-B
Tue 07:57:47 AM -22.6500 -47.0680 158° South 290 334 21,700 -1,241 Descending FlightAware ADS-B
Tue 07:58:28 AM -22.7020 -47.0460 159° South 286 329 20,900 -1,200 Descending FlightAware ADS-B
Tue 07:59:12 AM -22.7560 -47.0230 159° South 282 325 20,000 -1,244 Descending FlightAware ADS-B
Tue 07:59:50 AM -22.8020 -47.0040 159° South 278 320 19,200 -1,800 Descending FlightAware ADS-B
Tue 08:00:52 AM -22.8740 -46.9730 158° South 269 310 17,000 -2,500 Descending FlightAware ADS-B
Tue 08:01:38 AM -22.9300 -46.9500 159° South 275 316 14,700 -2,791 Descending FlightAware ADS-B
Tue 08:02:18 AM -22.9770 -46.9300 159° South 267 307 13,000 -1,929 Descending FlightAware ADS-B
Tue 08:03:02 AM -23.0280 -46.9090 159° South 269 310 12,000 -1,341 Descending FlightAware ADS-B
Tue 08:03:43 AM -23.0720 -46.8840 152° Southeast 267 307 11,100 -1,244 Descending FlightAware ADS-B
Tue 08:04:24 AM -23.1170 -46.8560 150° Southeast 260 299 10,300 -1,029 Descending FlightAware ADS-B
Tue 08:04:53 AM -23.1460 -46.8370 149° Southeast 248 285 9,900 -947 Descending FlightAware ADS-B
Tue 08:05:21 AM -23.1730 -46.8190 148° Southeast 237 273 9,400 -964 Descending FlightAware ADS-B
Tue 08:05:49 AM -23.1980 -46.8030 150° Southeast 226 260 9,000 -750 Descending FlightAware ADS-B
Tue 08:06:17 AM -23.2230 -46.7870 150° Southeast 212 244 8,700 -737 Descending FlightAware ADS-B
Tue 08:06:46 AM -23.2470 -46.7720 150° Southeast 204 235 8,300 -828 Descending FlightAware ADS-B
Tue 08:07:15 AM -23.2720 -46.7570 151° Southeast 204 235 7,900 -792 Descending FlightAware ADS-B
Tue 08:07:39 AM -23.2920 -46.7450 151° Southeast 205 236 7,600 -692 Descending FlightAware ADS-B
Tue 08:08:07 AM -23.3140 -46.7320 152° Southeast 204 235 7,300 -652 Descending FlightAware ADS-B
Tue 08:08:25 AM -23.3300 -46.7230 153° Southeast 204 235 7,100 -783 Descending FlightAware ADS-B
Tue 08:08:53 AM -23.3530 -46.7100 153° Southeast 196 226 6,700 -778 Descending FlightAware ADS-B
Tue 08:09:19 AM -23.3740 -46.6980 152° Southeast 192 221 6,400 -857 Descending FlightAware ADS-B
Tue 08:09:49 AM -23.3970 -46.6860 154° Southeast 177 204 5,900 -931 Descending FlightAware ADS-B
Tue 08:10:17 AM -23.4180 -46.6740 152° Southeast 178 205 5,500 -909 Descending FlightAware ADS-B
Tue 08:10:55 AM -23.4430 -46.6550 145° Southeast 176 203 4,900 -706 Descending FlightAware ADS-B
Tue 08:11:25 AM -23.4620 -46.6400 144° Southeast 168 193 4,700 -391 Descending FlightAware ADS-B
Tue 08:11:41 AM -23.4690 -46.6300 127° Southeast 153 176 4,600 -514 Descending FlightAware ADS-B
Tue 08:12:00 AM -23.4720 -46.6230 115° Southeast 152 175 4,400 -474 Descending FlightAware ADS-B
Tue 08:12:19 AM -23.4730 -46.6180 102° East 151 174 4,300 -735 Descending FlightAware ADS-B
Tue 08:12:49 AM -23.4640 -46.5800 76° East 156 180 3,800 -783 Descending FlightAware ADS-B
Tue 08:13:05 AM -23.4610 -46.5680 75° East 158 182 3,700 -682 Descending FlightAware ADS-B
Tue 08:13:33 AM -23.4550 -46.5480 72° East 138 159 3,300 -808 Descending FlightAware ADS-B
Tue 08:13:57 AM -23.4510 -46.5320 75° East 139 160 3,000 -692 Descending FlightAware ADS-B
Tue 08:14:25 AM -23.4460 -46.5130 74° East 142 163 2,700 -771 Descending FlightAware ADS-B
Tue 08:15:07 AM -23.4380 -46.4830 74° East 144 166 2,100 -857 Descending FlightAware ADS-B
Tue 08:16:57 AM -23.4290 -46.4680 155° Southeast 16 18 -1,145 Descending FlightAware ADS-B
Tue 08:17:00 AM -23.4321 -46.4695 155° Southeast  Level Estimated
Tue 08:17:42 AM -23.4290 -46.4690 270° West 12 14  Level FlightAware ADS-B

Login

Don't have an account? Register now (free) for customized features, flight alerts, and more!